createdAt,value
2022-08-30T00:02:10.720Z,2.97
2022-08-30T00:04:37.604Z,2.78
2022-08-30T00:07:04.521Z,2.75
2022-08-30T00:09:32.255Z,2.70
2022-08-30T00:11:59.027Z,3.15
2022-08-30T00:14:27.496Z,2.92
2022-08-30T00:16:54.313Z,3.20
2022-08-30T00:19:21.032Z,3.13
2022-08-30T00:21:48.878Z,3.00
2022-08-30T00:24:15.785Z,2.97
2022-08-30T00:26:42.483Z,3.28
2022-08-30T00:29:11.930Z,3.22
2022-08-30T00:31:38.680Z,3.17
2022-08-30T00:34:05.469Z,3.35
2022-08-30T00:36:32.189Z,2.85
2022-08-30T00:38:59.067Z,2.65
2022-08-30T00:41:25.838Z,3.55
2022-08-30T00:43:52.600Z,3.20
2022-08-30T00:46:19.498Z,3.10
2022-08-30T00:48:49.513Z,3.45
2022-08-30T00:51:17.154Z,3.35
2022-08-30T00:53:48.775Z,3.65
2022-08-30T00:56:17.954Z,3.40
2022-08-30T00:58:50.198Z,3.50
2022-08-30T01:01:18.176Z,3.20
2022-08-30T01:03:46.106Z,3.42
2022-08-30T01:06:17.075Z,3.83
2022-08-30T01:08:45.370Z,3.47
2022-08-30T01:11:17.178Z,3.05
2022-08-30T01:13:47.168Z,4.07
2022-08-30T01:16:14.604Z,3.25
2022-08-30T01:18:42.681Z,3.40
2022-08-30T01:21:25.750Z,3.90
2022-08-30T01:23:55.619Z,3.78
2022-08-30T01:26:22.712Z,3.72
2022-08-30T01:28:55.088Z,3.90
2022-08-30T01:31:22.455Z,4.13
2022-08-30T01:33:51.035Z,3.97
2022-08-30T01:36:19.162Z,4.00
2022-08-30T01:38:54.338Z,3.83
2022-08-30T01:41:31.777Z,4.32
2022-08-30T01:44:02.026Z,3.87
2022-08-30T01:46:32.337Z,4.35
2022-08-30T01:48:59.199Z,4.25
2022-08-30T01:51:27.995Z,3.70
2022-08-30T01:53:56.121Z,4.20
2022-08-30T01:56:23.993Z,3.60
2022-08-30T01:58:51.912Z,4.15
2022-08-30T02:01:22.024Z,4.75
2022-08-30T02:03:54.610Z,4.18
2022-08-30T02:06:22.765Z,4.40
2022-08-30T02:08:50.018Z,4.78
2022-08-30T02:11:18.007Z,4.45
2022-08-30T02:13:45.955Z,4.55
2022-08-30T02:16:16.384Z,4.78
2022-08-30T02:18:43.964Z,4.57
2022-08-30T02:21:12.135Z,4.83
2022-08-30T02:23:39.284Z,4.90
2022-08-30T02:26:06.402Z,4.15
2022-08-30T02:28:33.362Z,4.70
2022-08-30T02:31:00.509Z,5.03
2022-08-30T02:33:27.414Z,4.53
2022-08-30T02:35:54.555Z,4.60
2022-08-30T02:38:21.424Z,4.50
2022-08-30T02:40:48.110Z,4.93
2022-08-30T02:43:15.055Z,5.07
2022-08-30T02:45:42.454Z,4.80
2022-08-30T02:48:12.335Z,4.82
2022-08-30T02:50:44.371Z,4.70
2022-08-30T02:53:16.066Z,4.97
2022-08-30T02:55:43.928Z,5.05
2022-08-30T02:58:13.940Z,5.03
2022-08-30T03:00:41.391Z,4.93
2022-08-30T03:03:08.694Z,5.10
2022-08-30T03:05:39.638Z,5.30
2022-08-30T03:08:09.136Z,4.75
2022-08-30T03:10:36.140Z,5.28
2022-08-30T03:13:03.517Z,4.82
2022-08-30T03:15:30.291Z,4.90
2022-08-30T03:17:57.123Z,4.88
2022-08-30T03:20:25.483Z,4.90
2022-08-30T03:22:52.798Z,5.20
2022-08-30T03:25:21.117Z,5.35
2022-08-30T03:27:48.564Z,5.38
2022-08-30T03:32:44.480Z,5.63
2022-08-30T03:35:12.122Z,5.00
2022-08-30T03:37:38.903Z,5.10
2022-08-30T03:40:09.117Z,5.30
2022-08-30T03:42:37.228Z,5.60
2022-08-30T03:45:05.999Z,5.63
2022-08-30T03:47:32.841Z,5.47
2022-08-30T03:50:00.050Z,5.15
2022-08-30T03:52:27.541Z,5.80
2022-08-30T03:54:54.338Z,5.65
2022-08-30T03:57:24.455Z,5.20
2022-08-30T03:59:51.740Z,6.05
2022-08-30T04:02:18.641Z,5.60
2022-08-30T04:04:45.691Z,5.65
2022-08-30T04:07:12.766Z,5.40
2022-08-30T04:09:39.617Z,5.60
2022-08-30T04:12:06.625Z,5.65
2022-08-30T04:14:33.798Z,5.70
2022-08-30T04:17:01.593Z,5.60
2022-08-30T04:19:28.382Z,5.80
2022-08-30T04:21:55.079Z,5.38
2022-08-30T04:24:21.805Z,5.32
2022-08-30T04:26:48.540Z,5.60
2022-08-30T04:29:17.670Z,6.07
2022-08-30T04:31:45.589Z,6.05
2022-08-30T04:34:13.693Z,5.45
2022-08-30T04:36:40.484Z,6.38
2022-08-30T04:39:07.883Z,6.07
2022-08-30T04:41:37.011Z,6.22
2022-08-30T04:44:03.967Z,5.97
2022-08-30T04:46:31.029Z,5.93
2022-08-30T04:48:57.779Z,5.80
2022-08-30T04:51:24.483Z,5.68
2022-08-30T04:53:51.485Z,6.15
2022-08-30T04:56:22.428Z,5.82
2022-08-30T04:58:52.039Z,6.00
2022-08-30T05:01:25.776Z,5.32
2022-08-30T05:03:54.057Z,5.93
2022-08-30T05:06:22.139Z,5.45
2022-08-30T05:08:49.822Z,5.35
2022-08-30T05:11:17.648Z,5.75
2022-08-30T05:13:44.496Z,5.60
2022-08-30T05:16:13.334Z,6.32
2022-08-30T05:18:40.141Z,5.47
2022-08-30T05:21:12.497Z,5.60
2022-08-30T05:23:40.217Z,5.22
2022-08-30T05:26:12.780Z,5.20
2022-08-30T05:28:40.288Z,5.53
2022-08-30T05:31:16.909Z,5.60
2022-08-30T05:33:44.341Z,5.93
2022-08-30T05:36:14.778Z,5.88
2022-08-30T05:38:42.621Z,6.10
2022-08-30T05:41:11.678Z,5.28
2022-08-30T05:43:39.601Z,5.83
2022-08-30T05:46:10.593Z,5.47
2022-08-30T05:48:37.963Z,5.28
2022-08-30T05:51:06.309Z,5.53
2022-08-30T05:53:33.373Z,5.60
2022-08-30T05:56:05.181Z,5.85
2022-08-30T05:58:32.635Z,6.13
2022-08-30T06:01:00.307Z,5.55
2022-08-30T06:03:27.489Z,5.88
2022-08-30T06:05:54.386Z,5.40
2022-08-30T06:08:21.998Z,5.68
2022-08-30T06:10:48.755Z,5.70
2022-08-30T06:13:15.764Z,5.50
2022-08-30T06:15:45.111Z,5.47
2022-08-30T06:18:13.417Z,4.80
2022-08-30T06:20:43.536Z,5.47
2022-08-30T06:23:11.256Z,5.22
2022-08-30T06:25:42.153Z,5.38
2022-08-30T06:28:12.237Z,5.07
2022-08-30T06:30:41.019Z,4.47
2022-08-30T06:33:07.808Z,4.80
2022-08-30T06:35:38.262Z,4.88
2022-08-30T06:38:13.855Z,5.13
2022-08-30T06:40:40.780Z,4.00
2022-08-30T06:43:07.539Z,5.15
2022-08-30T06:45:35.455Z,4.00
2022-08-30T06:48:02.416Z,4.20
2022-08-30T06:50:29.222Z,4.32
2022-08-30T06:52:57.521Z,4.05
2022-08-30T06:57:54.188Z,3.80
2022-08-30T07:00:21.090Z,3.78
2022-08-30T07:02:47.824Z,3.97
2022-08-30T07:05:18.601Z,3.95
2022-08-30T07:07:45.819Z,3.50
2022-08-30T07:10:14.293Z,3.67
2022-08-30T07:15:12.559Z,2.67
2022-08-30T07:17:57.701Z,2.42
2022-08-30T07:20:24.569Z,2.40
2022-08-30T07:22:51.281Z,1.75
2022-08-30T07:25:19.933Z,2.25
2022-08-30T07:27:47.010Z,1.90
2022-08-30T07:30:14.142Z,1.67
2022-08-30T07:32:41.055Z,1.60
2022-08-30T07:35:09.897Z,1.17
2022-08-30T07:37:36.742Z,1.05
2022-08-30T07:40:05.046Z,1.00
2022-08-30T07:42:31.761Z,1.10
2022-08-30T07:44:58.514Z,1.00
2022-08-30T07:47:25.266Z,1.27
2022-08-30T07:49:52.019Z,0.98
2022-08-30T07:52:18.752Z,0.70
2022-08-30T07:54:45.490Z,0.80
2022-08-30T07:57:12.550Z,0.80
2022-08-30T07:59:43.217Z,1.00
2022-08-30T08:02:12.803Z,0.82
2022-08-30T08:04:39.710Z,0.90
2022-08-30T08:07:06.467Z,0.80
2022-08-30T08:09:34.062Z,0.90
2022-08-30T08:12:01.044Z,0.90
2022-08-30T08:14:28.418Z,1.00
2022-08-30T08:16:55.163Z,1.00
2022-08-30T08:19:21.903Z,0.93
2022-08-30T08:21:50.461Z,0.75
2022-08-30T08:24:27.631Z,1.00
2022-08-30T08:26:54.736Z,0.93
2022-08-30T08:29:22.462Z,0.93
2022-08-30T08:31:49.773Z,1.02
2022-08-30T08:34:19.063Z,1.13
2022-08-30T08:36:45.809Z,1.00
2022-08-30T08:39:12.547Z,0.85
2022-08-30T08:42:20.511Z,1.05
2022-08-30T08:47:51.866Z,0.90
2022-08-30T08:50:21.032Z,0.80
2022-08-30T08:53:45.780Z,0.85
2022-08-30T08:56:16.854Z,0.82
2022-08-30T08:58:47.005Z,1.23
2022-08-30T09:01:18.442Z,0.80
2022-08-30T09:03:47.268Z,0.80
2022-08-30T09:06:31.844Z,0.80
2022-08-30T09:08:58.777Z,1.17
2022-08-30T09:11:30.432Z,0.93
2022-08-30T09:13:57.234Z,0.80
2022-08-30T09:17:06.517Z,0.70
2022-08-30T09:19:42.523Z,0.77
2022-08-30T09:22:18.477Z,1.00
2022-08-30T09:24:49.167Z,1.25
2022-08-30T09:27:18.917Z,1.00
2022-08-30T09:29:53.712Z,1.08
2022-08-30T09:32:25.930Z,1.00
2022-08-30T09:34:52.722Z,0.80
2022-08-30T09:37:30.813Z,1.13
2022-08-30T09:39:58.517Z,1.10
2022-08-30T09:42:28.969Z,0.82
2022-08-30T09:45:10.421Z,0.88
2022-08-30T09:47:43.444Z,0.82
2022-08-30T09:50:15.139Z,0.95
2022-08-30T09:53:09.765Z,1.08
2022-08-30T09:55:54.005Z,0.70
2022-08-30T09:58:48.902Z,1.10
2022-08-30T10:01:39.680Z,0.90
2022-08-30T10:04:49.595Z,1.15
2022-08-30T10:07:28.943Z,0.98
2022-08-30T10:10:07.190Z,0.85
2022-08-30T10:12:56.877Z,1.08
2022-08-30T10:15:40.729Z,0.90
2022-08-30T10:18:34.742Z,0.90
2022-08-30T10:21:12.669Z,0.98
2022-08-30T10:23:49.360Z,1.05
2022-08-30T10:26:43.394Z,1.05
2022-08-30T10:29:19.182Z,1.00
2022-08-30T10:32:11.924Z,1.10
2022-08-30T10:34:45.351Z,0.93
2022-08-30T10:37:17.394Z,0.80
2022-08-30T10:39:51.713Z,0.88
2022-08-30T10:42:26.482Z,1.20
2022-08-30T10:44:58.704Z,1.20
2022-08-30T10:47:47.304Z,1.00
2022-08-30T10:50:22.389Z,1.00
2022-08-30T10:52:59.363Z,0.90
2022-08-30T10:55:31.064Z,1.00
2022-08-30T10:58:04.414Z,1.02
2022-08-30T11:00:40.728Z,1.40
2022-08-30T11:03:42.516Z,1.20
2022-08-30T11:06:18.397Z,0.90
2022-08-30T11:08:51.374Z,1.38
2022-08-30T11:11:31.033Z,1.08
2022-08-30T11:14:05.318Z,1.20
2022-08-30T11:16:39.579Z,1.10
2022-08-30T11:19:38.387Z,1.40
2022-08-30T11:22:29.851Z,1.40
2022-08-30T11:25:09.863Z,1.75
2022-08-30T11:27:41.910Z,1.20
2022-08-30T11:30:27.466Z,1.58
2022-08-30T11:33:09.505Z,1.27
2022-08-30T11:35:49.992Z,1.08
2022-08-30T11:38:25.610Z,1.00
2022-08-30T11:40:55.388Z,1.20
2022-08-30T11:43:36.634Z,1.13
2022-08-30T11:46:26.917Z,1.38
2022-08-30T11:49:15.071Z,1.15
2022-08-30T11:52:31.713Z,1.02
2022-08-30T11:55:32.635Z,1.00
2022-08-30T11:58:30.137Z,1.30
2022-08-30T12:01:42.027Z,1.30
2022-08-30T12:04:06.403Z,1.00
2022-08-30T12:06:43.092Z,1.02
2022-08-30T12:09:24.991Z,1.08
2022-08-30T12:12:05.550Z,1.10
2022-08-30T12:14:41.201Z,1.20
2022-08-30T12:17:40.673Z,1.10
2022-08-30T12:20:19.090Z,1.30
2022-08-30T12:22:47.685Z,1.17
2022-08-30T12:25:28.801Z,0.95
2022-08-30T12:28:16.109Z,1.23
2022-08-30T12:30:46.660Z,1.20
2022-08-30T12:33:29.154Z,1.45
2022-08-30T12:35:59.188Z,1.13
2022-08-30T12:38:27.971Z,1.15
2022-08-30T12:40:58.031Z,1.48
2022-08-30T12:43:40.789Z,1.20
2022-08-30T12:46:12.442Z,1.23
2022-08-30T12:48:42.230Z,1.50
2022-08-30T12:51:24.848Z,1.40
2022-08-30T12:53:52.747Z,2.05
2022-08-30T12:56:47.072Z,1.10
2022-08-30T12:59:06.686Z,1.20
2022-08-30T13:01:36.923Z,1.60
2022-08-30T13:04:22.044Z,1.13
2022-08-30T13:06:51.108Z,1.08
2022-08-30T13:09:27.346Z,1.10
2022-08-30T13:12:00.692Z,1.30
2022-08-30T13:14:37.382Z,1.00
2022-08-30T13:17:23.300Z,1.00
2022-08-30T13:20:16.714Z,0.90
2022-08-30T13:23:10.673Z,1.13
2022-08-30T13:25:39.124Z,1.10
2022-08-30T13:30:34.049Z,1.08
2022-08-30T13:33:02.299Z,1.25
2022-08-30T13:35:30.288Z,1.17
2022-08-30T13:38:01.369Z,1.05
2022-08-30T13:40:29.198Z,1.02
2022-08-30T13:42:56.733Z,1.00
2022-08-30T13:45:41.761Z,0.88
2022-08-30T13:48:10.817Z,1.10
2022-08-30T13:50:38.123Z,1.40
2022-08-30T13:53:04.966Z,1.50
2022-08-30T13:55:31.761Z,1.30
2022-08-30T13:57:58.500Z,1.52
2022-08-30T14:00:26.829Z,1.73
2022-08-30T14:02:59.971Z,1.95
2022-08-30T14:05:50.692Z,1.70
2022-08-30T14:11:16.087Z,1.70
2022-08-30T14:16:36.160Z,1.77
2022-08-30T14:19:03.400Z,1.70
2022-08-30T14:21:30.590Z,2.38
2022-08-30T14:23:58.004Z,1.50
2022-08-30T14:26:47.549Z,1.70
2022-08-30T14:29:17.976Z,1.58
2022-08-30T14:31:45.076Z,1.40
2022-08-30T14:34:13.848Z,1.33
2022-08-30T14:36:42.461Z,1.58
2022-08-30T14:39:14.455Z,1.30
2022-08-30T14:41:45.165Z,1.30
2022-08-30T14:44:16.327Z,1.77
2022-08-30T14:46:44.820Z,1.70
2022-08-30T14:51:39.830Z,1.63
2022-08-30T14:54:07.114Z,1.52
2022-08-30T14:56:34.551Z,1.40
2022-08-30T14:59:02.947Z,1.40
2022-08-30T15:01:31.113Z,1.23
2022-08-30T15:03:58.766Z,1.65
2022-08-30T15:06:26.475Z,1.30
2022-08-30T15:08:54.772Z,1.10
2022-08-30T15:11:24.123Z,1.35
2022-08-30T15:13:52.921Z,1.10
2022-08-30T15:16:23.905Z,1.40
2022-08-30T15:18:51.704Z,1.20
2022-08-30T15:21:27.615Z,1.27
2022-08-30T15:23:54.963Z,1.20
2022-08-30T15:26:22.663Z,0.90
2022-08-30T15:28:50.448Z,1.30
2022-08-30T15:31:20.428Z,1.10
2022-08-30T15:33:47.309Z,1.10
2022-08-30T15:36:14.066Z,1.10
2022-08-30T15:38:42.483Z,1.00
2022-08-30T15:41:15.581Z,1.15
2022-08-30T15:43:42.390Z,0.90
2022-08-30T15:46:22.620Z,1.10
2022-08-30T15:48:52.012Z,1.00
2022-08-30T15:51:21.492Z,0.95
2022-08-30T15:53:50.888Z,0.90
2022-08-30T15:56:17.826Z,0.95
2022-08-30T15:58:45.503Z,1.10
2022-08-30T16:01:16.193Z,1.00
2022-08-30T16:03:47.157Z,0.80
2022-08-30T16:06:18.140Z,1.00
2022-08-30T16:08:46.270Z,0.88
2022-08-30T16:13:42.348Z,0.80
2022-08-30T16:16:13.674Z,0.83
2022-08-30T16:18:41.242Z,0.75
2022-08-30T16:21:11.144Z,1.15
2022-08-30T16:23:40.439Z,0.95
2022-08-30T16:26:14.629Z,0.95
2022-08-30T16:28:44.801Z,0.90
2022-08-30T16:31:11.684Z,1.02
2022-08-30T16:33:43.065Z,1.00
2022-08-30T16:36:11.799Z,0.90
2022-08-30T16:38:39.204Z,1.00
2022-08-30T16:41:10.882Z,1.42
2022-08-30T16:43:38.931Z,0.80
2022-08-30T16:46:12.280Z,1.17
2022-08-30T16:48:40.004Z,0.80
2022-08-30T16:51:16.870Z,0.73
2022-08-30T16:53:44.875Z,0.93
2022-08-30T16:56:16.855Z,1.10
2022-08-30T16:58:45.398Z,0.90
2022-08-30T17:01:12.850Z,1.00
2022-08-30T17:03:40.701Z,1.20
2022-08-30T17:06:10.560Z,0.90
2022-08-30T17:08:37.488Z,0.90
2022-08-30T17:11:06.822Z,0.73
2022-08-30T17:13:36.098Z,0.85
2022-08-30T17:16:05.830Z,0.90
2022-08-30T17:18:34.098Z,1.10
2022-08-30T17:23:27.791Z,1.00
2022-08-30T17:25:54.614Z,1.00
2022-08-30T17:28:21.964Z,1.20
2022-08-30T17:30:49.097Z,1.00
2022-08-30T17:33:17.935Z,0.93
2022-08-30T17:35:44.786Z,0.80
2022-08-30T17:38:12.275Z,0.90
2022-08-30T17:40:39.260Z,1.20
2022-08-30T17:43:07.951Z,1.02
2022-08-30T17:45:35.012Z,0.90
2022-08-30T17:48:02.332Z,1.17
2022-08-30T17:50:29.144Z,1.17
2022-08-30T17:53:00.673Z,1.00
2022-08-30T17:55:28.590Z,1.05
2022-08-30T17:57:57.641Z,1.00
2022-08-30T18:00:27.428Z,0.88
2022-08-30T18:02:54.336Z,1.00
2022-08-30T18:05:24.315Z,0.90
2022-08-30T18:07:51.607Z,1.25
2022-08-30T18:10:18.408Z,1.00
2022-08-30T18:12:45.078Z,0.90
2022-08-30T18:15:15.656Z,1.13
2022-08-30T18:17:44.294Z,1.23
2022-08-30T18:20:11.543Z,1.05
2022-08-30T18:22:38.362Z,1.10
2022-08-30T18:25:06.229Z,1.00
2022-08-30T18:27:34.105Z,1.10
2022-08-30T18:30:08.027Z,0.95
2022-08-30T18:32:38.563Z,1.00
2022-08-30T18:35:05.752Z,0.90
2022-08-30T18:37:32.673Z,0.98
2022-08-30T18:39:59.731Z,1.00
2022-08-30T18:44:54.493Z,0.95
2022-08-30T18:47:23.213Z,1.00
2022-08-30T18:49:50.654Z,1.10
2022-08-30T18:52:17.441Z,1.33
2022-08-30T18:54:52.364Z,4.40
2022-08-30T18:57:20.286Z,1.13
2022-08-30T18:59:46.952Z,0.90
2022-08-30T19:02:16.296Z,1.10
2022-08-30T19:04:45.692Z,1.10
2022-08-30T19:07:14.762Z,1.17
2022-08-30T19:09:45.264Z,0.95
2022-08-30T19:12:12.692Z,1.02
2022-08-30T19:14:39.718Z,1.73
2022-08-30T19:17:07.848Z,1.08
2022-08-30T19:19:37.353Z,1.13
2022-08-30T19:22:15.336Z,1.00
2022-08-30T19:24:42.089Z,1.10
2022-08-30T19:27:10.415Z,1.10
2022-08-30T19:29:37.218Z,1.30
2022-08-30T19:32:04.212Z,1.10
2022-08-30T19:34:30.942Z,1.08
2022-08-30T19:36:57.792Z,1.00
2022-08-30T19:39:24.631Z,1.60
2022-08-30T19:41:51.384Z,0.90
2022-08-30T19:44:18.247Z,1.30
2022-08-30T19:46:45.141Z,1.10
2022-08-30T19:49:12.807Z,0.80
2022-08-30T19:51:39.940Z,0.90
2022-08-30T19:54:14.471Z,0.90
2022-08-30T19:56:42.313Z,1.00
2022-08-30T19:59:09.072Z,1.05
2022-08-30T20:04:04.505Z,1.30
2022-08-30T20:06:32.032Z,1.30
2022-08-30T20:09:00.275Z,1.30
2022-08-30T20:11:28.936Z,1.27
2022-08-30T20:16:33.257Z,1.60
2022-08-30T20:19:06.113Z,1.73
2022-08-30T20:21:33.013Z,1.35
2022-08-30T20:24:00.854Z,1.60
2022-08-30T20:26:33.861Z,1.77
2022-08-30T20:29:04.318Z,1.48
2022-08-30T20:31:31.677Z,1.77
2022-08-30T20:33:58.411Z,1.60
2022-08-30T20:36:25.229Z,1.90
2022-08-30T20:38:52.004Z,1.40
2022-08-30T20:41:19.881Z,1.42
2022-08-30T20:43:48.699Z,1.40
2022-08-30T20:46:20.093Z,1.50
2022-08-30T20:48:47.629Z,1.45
2022-08-30T20:51:19.936Z,1.40
2022-08-30T20:53:46.760Z,2.72
2022-08-30T20:56:15.874Z,1.98
2022-08-30T20:58:43.384Z,1.50
2022-08-30T21:01:11.481Z,1.50
2022-08-30T21:06:06.419Z,1.45
2022-08-30T21:08:33.467Z,1.53
2022-08-30T21:11:01.374Z,1.92
2022-08-30T21:13:29.244Z,1.40
2022-08-30T21:16:00.664Z,1.40
2022-08-30T21:18:33.044Z,1.60
2022-08-30T21:21:07.660Z,1.30
2022-08-30T21:23:35.628Z,1.70
2022-08-30T21:26:05.922Z,1.40
2022-08-30T21:28:32.757Z,1.48
2022-08-30T21:31:14.401Z,1.08
2022-08-30T21:33:41.691Z,1.17
2022-08-30T21:36:27.941Z,1.30
2022-08-30T21:39:00.472Z,1.20
2022-08-30T21:41:28.285Z,1.45
2022-08-30T21:43:57.932Z,1.40
2022-08-30T21:46:27.205Z,1.20
2022-08-30T21:48:54.621Z,0.95
2022-08-30T21:51:21.466Z,1.25
2022-08-30T21:53:48.224Z,1.08
2022-08-30T21:56:21.528Z,1.20
2022-08-30T21:58:49.100Z,1.08
2022-08-30T22:01:23.540Z,1.30
2022-08-30T22:03:53.711Z,1.00
2022-08-30T22:06:20.736Z,1.30
2022-08-30T22:08:49.025Z,1.20
2022-08-30T22:11:23.600Z,1.00
2022-08-30T22:13:52.241Z,1.10
2022-08-30T22:16:20.331Z,1.38
2022-08-30T22:18:47.919Z,1.17
2022-08-30T22:21:18.272Z,1.02
2022-08-30T22:23:45.382Z,0.80
2022-08-30T22:26:13.836Z,1.60
2022-08-30T22:31:15.097Z,1.30
2022-08-30T22:33:42.942Z,1.00
2022-08-30T22:36:13.948Z,1.10
2022-08-30T22:38:41.007Z,0.98
2022-08-30T22:41:13.499Z,0.82
2022-08-30T22:43:40.490Z,0.95
2022-08-30T22:46:07.631Z,1.05
2022-08-30T22:48:35.995Z,1.00
2022-08-30T22:53:31.197Z,1.20
2022-08-30T22:55:58.429Z,1.07
2022-08-30T22:58:25.937Z,1.30
2022-08-30T23:00:54.655Z,1.00
2022-08-30T23:03:21.959Z,0.90
2022-08-30T23:05:48.660Z,1.08
2022-08-30T23:08:15.387Z,0.80
2022-08-30T23:10:42.148Z,1.00
2022-08-30T23:13:08.835Z,1.10
2022-08-30T23:15:36.119Z,1.10
2022-08-30T23:18:04.293Z,1.00
2022-08-30T23:20:31.180Z,0.95
2022-08-30T23:23:00.515Z,0.90
2022-08-30T23:25:52.339Z,0.90
2022-08-30T23:28:39.681Z,0.90
2022-08-30T23:31:35.796Z,1.00
2022-08-30T23:34:21.752Z,0.90
2022-08-30T23:37:07.352Z,0.90
2022-08-30T23:39:52.822Z,1.00
2022-08-30T23:42:38.347Z,0.80
2022-08-30T23:45:24.337Z,0.82
2022-08-30T23:48:09.585Z,1.27
2022-08-30T23:50:55.018Z,1.15
2022-08-30T23:53:43.625Z,1.00
2022-08-30T23:56:30.640Z,1.00
2022-08-30T23:59:16.168Z,0.98
